createdAt,value
2018-11-04T00:01:45.965Z,100608.55
2018-11-04T00:04:14.123Z,100610.69
2018-11-04T00:06:42.447Z,100610.84
2018-11-04T00:09:11.296Z,100604.39
2018-11-04T00:11:39.831Z,100608.42
2018-11-04T00:14:08.070Z,100595.81
2018-11-04T00:16:36.347Z,100590.63
2018-11-04T00:19:04.576Z,100584.59
2018-11-04T00:21:33.173Z,100584.80
2018-11-04T00:24:01.420Z,100576.91
2018-11-04T00:26:29.856Z,100575.91
2018-11-04T00:28:58.143Z,100579.23
2018-11-04T00:31:26.563Z,100573.96
2018-11-04T00:33:54.655Z,100575.11
2018-11-04T00:36:23.040Z,100571.23
2018-11-04T00:38:51.446Z,100573.43
2018-11-04T00:41:19.514Z,100566.88
2018-11-04T00:43:47.968Z,100564.50
2018-11-04T00:46:16.454Z,100563.33
2018-11-04T00:48:44.930Z,100557.50
2018-11-04T00:51:13.227Z,100553.58
2018-11-04T00:53:41.708Z,100557.92
2018-11-04T00:56:09.428Z,100552.86
2018-11-04T00:58:37.445Z,100550.73
2018-11-04T01:01:05.932Z,100548.32
2018-11-04T01:03:34.173Z,100546.05
2018-11-04T01:06:02.680Z,100547.48
2018-11-04T01:08:31.124Z,100539.41
2018-11-04T01:10:59.380Z,100543.05
2018-11-04T01:13:27.503Z,100543.16
2018-11-04T01:15:55.954Z,100540.59
2018-11-04T01:18:24.187Z,100535.30
2018-11-04T01:20:52.303Z,100530.97
2018-11-04T01:23:20.573Z,100527.45
2018-11-04T01:25:49.099Z,100524.27
2018-11-04T01:28:16.911Z,100525.24
2018-11-04T01:30:45.408Z,100520.74
2018-11-04T01:33:13.708Z,100521.73
2018-11-04T01:35:41.451Z,100522.67
2018-11-04T01:38:09.211Z,100522.69
2018-11-04T01:40:36.979Z,100522.13
2018-11-04T01:43:05.065Z,100519.76
2018-11-04T01:45:33.207Z,100520.52
2018-11-04T01:48:01.715Z,100518.83
2018-11-04T01:50:29.492Z,100521.84
2018-11-04T01:52:57.418Z,100525.72
2018-11-04T01:55:25.886Z,100523.23
2018-11-04T01:57:54.011Z,100528.41
2018-11-04T02:00:22.341Z,100525.89
2018-11-04T02:02:50.567Z,100521.95
2018-11-04T02:05:18.851Z,100514.58
2018-11-04T02:07:47.310Z,100520.55
2018-11-04T02:10:15.379Z,100509.58
2018-11-04T02:12:43.165Z,100510.22
2018-11-04T02:15:11.987Z,100512.92
2018-11-04T02:17:39.734Z,100512.22
2018-11-04T02:20:09.494Z,100514.39
2018-11-04T02:22:37.963Z,100506.13
2018-11-04T02:25:06.807Z,100513.47
2018-11-04T02:27:34.860Z,100511.28
2018-11-04T02:30:03.339Z,100517.77
2018-11-04T02:32:31.586Z,100515.28
2018-11-04T02:34:59.880Z,100513.38
2018-11-04T02:37:28.240Z,100521.31
2018-11-04T02:39:56.513Z,100519.63
2018-11-04T02:42:25.063Z,100520.62
2018-11-04T02:44:53.231Z,100524.98
2018-11-04T02:47:21.345Z,100528.48
2018-11-04T02:49:49.872Z,100523.84
2018-11-04T02:52:18.060Z,100525.39
2018-11-04T02:54:46.275Z,100530.27
2018-11-04T02:57:14.483Z,100529.65
2018-11-04T02:59:42.960Z,100530.14
2018-11-04T03:02:11.249Z,100530.23
2018-11-04T03:04:39.812Z,100527.61
2018-11-04T03:07:07.927Z,100532.09
2018-11-04T03:09:36.079Z,100525.33
2018-11-04T03:12:04.550Z,100524.41
2018-11-04T03:14:33.094Z,100522.64
2018-11-04T03:17:01.551Z,100518.36
2018-11-04T03:19:29.839Z,100523.30
2018-11-04T03:21:58.014Z,100524.48
2018-11-04T03:24:26.501Z,100522.74
2018-11-04T03:26:54.796Z,100521.73
2018-11-04T03:29:23.048Z,100528.60
2018-11-04T03:31:50.780Z,100529.42
2018-11-04T03:34:19.029Z,100535.41
2018-11-04T03:36:47.236Z,100536.23
2018-11-04T03:39:15.307Z,100538.52
2018-11-04T03:41:43.486Z,100533.34
2018-11-04T03:44:11.941Z,100525.03
2018-11-04T03:46:40.160Z,100530.30
2018-11-04T03:49:09.063Z,100527.78
2018-11-04T03:51:37.535Z,100525.85
2018-11-04T03:54:05.625Z,100531.28
2018-11-04T03:56:34.134Z,100534.88
2018-11-04T03:59:02.609Z,100538.37
2018-11-04T04:01:30.799Z,100535.76
2018-11-04T04:03:58.983Z,100541.39
2018-11-04T04:06:27.220Z,100542.64
2018-11-04T04:08:55.470Z,100545.06
2018-11-04T04:11:24.020Z,100546.30
2018-11-04T04:13:52.255Z,100545.61
2018-11-04T04:16:20.788Z,100544.88
2018-11-04T04:18:49.027Z,100540.59
2018-11-04T04:21:17.223Z,100544.88
2018-11-04T04:23:45.331Z,100549.39
2018-11-04T04:26:13.521Z,100548.58
2018-11-04T04:28:41.703Z,100546.06
2018-11-04T04:31:09.943Z,100548.53
2018-11-04T04:33:38.247Z,100541.70
2018-11-04T04:36:06.277Z,100548.09
2018-11-04T04:38:34.783Z,100552.19
2018-11-04T04:41:03.124Z,100555.05
2018-11-04T04:43:31.502Z,100556.25
2018-11-04T04:45:59.575Z,100560.89
2018-11-04T04:48:27.578Z,100556.70
2018-11-04T04:50:56.266Z,100563.91
2018-11-04T04:53:25.013Z,100561.54
2018-11-04T04:55:55.091Z,100567.84
2018-11-04T04:58:23.408Z,100574.62
2018-11-04T05:00:51.406Z,100582.27
2018-11-04T05:03:19.123Z,100582.23
2018-11-04T05:05:46.855Z,100596.45
2018-11-04T05:08:14.600Z,100598.57
2018-11-04T05:10:42.386Z,100600.23
2018-11-04T05:13:10.091Z,100607.47
2018-11-04T05:15:37.866Z,100607.39
2018-11-04T05:18:06.220Z,100612.98
2018-11-04T05:20:33.908Z,100613.14
2018-11-04T05:23:01.651Z,100620.50
2018-11-04T05:25:29.808Z,100609.48
2018-11-04T05:27:58.055Z,100612.18
2018-11-04T05:30:26.315Z,100610.94
2018-11-04T05:32:54.610Z,100622.24
2018-11-04T05:35:23.138Z,100621.24
2018-11-04T05:37:51.382Z,100625.44
2018-11-04T05:40:19.859Z,100623.42
2018-11-04T05:42:47.697Z,100625.78
2018-11-04T05:45:15.451Z,100627.14
2018-11-04T05:47:43.255Z,100631.50
2018-11-04T05:50:11.712Z,100633.34
2018-11-04T05:52:39.931Z,100636.23
2018-11-04T05:55:08.674Z,100635.36
2018-11-04T05:57:37.246Z,100631.39
2018-11-04T06:00:07.011Z,100633.20
2018-11-04T06:02:34.786Z,100634.25
2018-11-04T06:05:02.883Z,100635.58
2018-11-04T06:07:31.064Z,100635.39
2018-11-04T06:09:59.583Z,100638.74
2018-11-04T06:12:27.819Z,100640.95
2018-11-04T06:14:56.305Z,100637.38
2018-11-04T06:17:24.436Z,100643.77
2018-11-04T06:19:52.663Z,100641.42
2018-11-04T06:22:20.974Z,100641.13
2018-11-04T06:24:49.648Z,100651.77
2018-11-04T06:27:17.919Z,100653.16
2018-11-04T06:29:46.391Z,100638.14
2018-11-04T06:32:14.677Z,100643.30
2018-11-04T06:34:43.192Z,100648.91
2018-11-04T06:37:10.935Z,100645.26
2018-11-04T06:39:39.299Z,100643.08
2018-11-04T06:42:07.553Z,100643.39
2018-11-04T06:44:35.825Z,100652.70
2018-11-04T06:47:04.350Z,100647.63
2018-11-04T06:49:32.682Z,100652.88
2018-11-04T06:52:00.886Z,100650.14
2018-11-04T06:54:28.963Z,100652.27
2018-11-04T06:56:57.370Z,100645.28
2018-11-04T06:59:25.252Z,100650.13
2018-11-04T07:01:53.177Z,100649.05
2018-11-04T07:04:25.998Z,100657.05
2018-11-04T07:06:54.039Z,100645.82
2018-11-04T07:09:22.473Z,100644.95
2018-11-04T07:11:50.729Z,100642.45
2018-11-04T07:14:19.423Z,100638.42
2018-11-04T07:16:47.709Z,100637.58
2018-11-04T07:19:16.115Z,100634.06
2018-11-04T07:21:44.530Z,100626.64
2018-11-04T07:24:12.961Z,100627.58
2018-11-04T07:26:41.247Z,100630.98
2018-11-04T07:29:09.779Z,100622.90
2018-11-04T07:31:37.808Z,100629.70
2018-11-04T07:34:05.991Z,100626.13
2018-11-04T07:36:34.208Z,100628.26
2018-11-04T07:39:03.296Z,100626.48
2018-11-04T07:41:31.700Z,100619.72
2018-11-04T07:43:59.988Z,100622.41
2018-11-04T07:46:28.500Z,100631.21
2018-11-04T07:48:56.768Z,100614.83
2018-11-04T07:51:25.300Z,100616.68
2018-11-04T07:53:53.463Z,100621.85
2018-11-04T07:56:21.235Z,100617.25
2018-11-04T07:58:49.079Z,100616.30
2018-11-04T08:01:16.895Z,100612.64
2018-11-04T08:03:44.693Z,100607.06
2018-11-04T08:06:12.644Z,100600.09
2018-11-04T08:08:40.391Z,100593.67
2018-11-04T08:11:08.095Z,100598.44
2018-11-04T08:13:36.018Z,100596.12
2018-11-04T08:16:03.707Z,100598.16
2018-11-04T08:18:31.411Z,100607.66
2018-11-04T08:20:59.237Z,100601.79
2018-11-04T08:23:27.004Z,100602.16
2018-11-04T08:25:54.747Z,100600.30
2018-11-04T08:28:22.599Z,100606.23
2018-11-04T08:30:50.449Z,100603.52
2018-11-04T08:33:18.256Z,100598.45
2018-11-04T08:35:46.679Z,100600.09
2018-11-04T08:38:14.976Z,100589.41
2018-11-04T08:40:43.335Z,100589.59
2018-11-04T08:43:11.475Z,100586.58
2018-11-04T08:45:39.914Z,100581.19
2018-11-04T08:48:08.231Z,100581.98
2018-11-04T08:50:36.718Z,100582.38
2018-11-04T08:53:05.008Z,100583.09
2018-11-04T08:55:33.346Z,100581.70
2018-11-04T08:58:01.747Z,100583.22
2018-11-04T09:00:29.803Z,100580.70
2018-11-04T09:02:57.998Z,100571.36
2018-11-04T09:05:26.152Z,100573.25
2018-11-04T09:07:54.375Z,100576.47
2018-11-04T09:10:22.504Z,100576.70
2018-11-04T09:12:50.746Z,100582.78
2018-11-04T09:15:19.221Z,100579.28
2018-11-04T09:17:47.503Z,100571.39
2018-11-04T09:20:16.644Z,100574.30
2018-11-04T09:22:44.537Z,100565.47
2018-11-04T09:25:13.191Z,100572.80
2018-11-04T09:27:41.315Z,100573.47
2018-11-04T09:30:11.910Z,100563.20
2018-11-04T09:32:39.695Z,100564.72
2018-11-04T09:35:08.254Z,100557.69
2018-11-04T09:37:35.850Z,100559.89
2018-11-04T09:40:04.298Z,100536.17
2018-11-04T09:42:32.088Z,100536.25
2018-11-04T09:44:59.888Z,100532.99
2018-11-04T09:47:27.672Z,100520.63
2018-11-04T09:49:55.500Z,100527.80
2018-11-04T09:52:23.299Z,100520.09
2018-11-04T09:54:51.402Z,100521.48
2018-11-04T09:57:19.519Z,100515.23
2018-11-04T09:59:47.770Z,100517.14
2018-11-04T10:02:16.005Z,100507.66
2018-11-04T10:04:44.156Z,100509.18
2018-11-04T10:07:12.520Z,100502.25
2018-11-04T10:09:40.262Z,100501.48
2018-11-04T10:12:08.031Z,100500.40
2018-11-04T10:14:36.178Z,100492.02
2018-11-04T10:17:04.472Z,100490.44
2018-11-04T10:19:33.106Z,100485.32
2018-11-04T10:22:01.205Z,100472.02
2018-11-04T10:24:29.293Z,100472.98
2018-11-04T10:26:57.628Z,100474.45
2018-11-04T10:29:25.851Z,100478.81
2018-11-04T10:31:54.334Z,100471.66
2018-11-04T10:34:22.642Z,100464.41
2018-11-04T10:36:51.050Z,100467.25
2018-11-04T10:39:19.152Z,100460.16
2018-11-04T10:41:47.690Z,100469.48
2018-11-04T10:44:15.897Z,100457.75
2018-11-04T10:46:44.363Z,100446.73
2018-11-04T10:49:12.841Z,100454.61
2018-11-04T10:51:41.155Z,100451.44
2018-11-04T10:54:09.403Z,100453.28
2018-11-04T10:56:37.807Z,100445.06
2018-11-04T10:59:06.031Z,100448.06
2018-11-04T11:01:34.361Z,100441.32
2018-11-04T11:04:02.636Z,100441.20
2018-11-04T11:06:31.043Z,100445.31
2018-11-04T11:08:59.090Z,100443.92
2018-11-04T11:11:27.361Z,100440.50
2018-11-04T11:13:55.467Z,100438.91
2018-11-04T11:16:23.662Z,100443.46
2018-11-04T11:18:51.427Z,100439.12
2018-11-04T11:21:19.151Z,100425.66
2018-11-04T11:23:46.864Z,100427.03
2018-11-04T11:26:14.583Z,100423.41
2018-11-04T11:28:42.309Z,100431.79
2018-11-04T11:31:10.024Z,100424.86
2018-11-04T11:33:37.871Z,100413.93
2018-11-04T11:36:05.959Z,100411.02
2018-11-04T11:38:33.738Z,100407.02
2018-11-04T11:41:01.564Z,100404.91
2018-11-04T11:43:29.381Z,100404.69
2018-11-04T11:45:57.114Z,100403.16
2018-11-04T11:48:24.891Z,100401.11
2018-11-04T11:50:52.601Z,100397.56
2018-11-04T11:53:20.439Z,100395.83
2018-11-04T11:55:48.248Z,100394.30
2018-11-04T11:58:15.996Z,100389.75
2018-11-04T12:00:43.735Z,100386.36
2018-11-04T12:03:11.496Z,100379.58
2018-11-04T12:05:39.263Z,100376.84
2018-11-04T12:08:07.015Z,100373.67
2018-11-04T12:10:34.780Z,100380.89
2018-11-04T12:13:03.497Z,100375.83
2018-11-04T12:15:31.351Z,100376.13
2018-11-04T12:17:59.268Z,100377.20
2018-11-04T12:20:27.106Z,100374.47
2018-11-04T12:22:54.923Z,100368.48
2018-11-04T12:25:22.743Z,100369.87
2018-11-04T12:27:50.511Z,100364.73
2018-11-04T12:30:18.235Z,100367.99
2018-11-04T12:32:45.950Z,100366.05
2018-11-04T12:35:14.174Z,100360.14
2018-11-04T12:37:42.162Z,100357.84
2018-11-04T12:40:11.496Z,100356.57
2018-11-04T12:42:39.343Z,100350.23
2018-11-04T12:45:08.501Z,100359.63
2018-11-04T12:47:36.427Z,100353.38
2018-11-04T12:50:05.431Z,100353.50
2018-11-04T12:52:33.243Z,100341.60
2018-11-04T12:55:01.019Z,100338.40
2018-11-04T12:57:28.750Z,100343.36
2018-11-04T12:59:56.444Z,100339.45
2018-11-04T13:02:24.176Z,100337.97
2018-11-04T13:04:52.196Z,100340.16
2018-11-04T13:07:20.015Z,100338.94
2018-11-04T13:09:47.755Z,100331.16
2018-11-04T13:12:15.479Z,100322.97
2018-11-04T13:14:43.195Z,100321.36
2018-11-04T13:17:10.988Z,100330.55
2018-11-04T13:19:38.690Z,100327.38
2018-11-04T13:22:06.527Z,100326.99
2018-11-04T13:24:34.285Z,100324.06
2018-11-04T13:27:02.077Z,100329.23
2018-11-04T13:29:29.823Z,100325.59
2018-11-04T13:31:57.570Z,100330.70
2018-11-04T13:34:25.392Z,100320.94
2018-11-04T13:36:53.985Z,100326.34
2018-11-04T13:39:21.763Z,100323.39
2018-11-04T13:41:49.491Z,100308.67
2018-11-04T13:44:17.250Z,100313.95
2018-11-04T13:46:45.075Z,100310.48
2018-11-04T13:49:12.844Z,100309.22
2018-11-04T13:51:40.616Z,100298.47
2018-11-04T13:54:08.338Z,100298.86
2018-11-04T13:56:36.084Z,100295.51
2018-11-04T13:59:03.919Z,100303.42
2018-11-04T14:01:31.715Z,100306.68
2018-11-04T14:03:59.503Z,100301.83
2018-11-04T14:06:27.340Z,100306.88
2018-11-04T14:08:55.140Z,100304.42
2018-11-04T14:11:22.895Z,100301.13
2018-11-04T14:13:50.610Z,100305.73
2018-11-04T14:16:18.348Z,100297.12
2018-11-04T14:18:46.126Z,100301.50
2018-11-04T14:21:13.837Z,100299.47
2018-11-04T14:23:41.640Z,100300.25
2018-11-04T14:26:09.398Z,100303.67
2018-11-04T14:28:37.210Z,100296.42
2018-11-04T14:31:05.413Z,100294.95
2018-11-04T14:33:33.124Z,100297.44
2018-11-04T14:36:00.891Z,100299.53
2018-11-04T14:38:28.727Z,100301.72
2018-11-04T14:40:56.483Z,100296.99
2018-11-04T14:43:24.313Z,100299.23
2018-11-04T14:45:52.093Z,100302.39
2018-11-04T14:48:19.863Z,100303.84
2018-11-04T14:50:47.651Z,100296.84
2018-11-04T14:53:15.428Z,100294.20
2018-11-04T14:55:43.181Z,100303.77
2018-11-04T14:58:10.993Z,100297.11
2018-11-04T15:00:38.775Z,100299.81
2018-11-04T15:03:07.047Z,100301.39
2018-11-04T15:05:34.821Z,100296.17
2018-11-04T15:08:02.744Z,100297.06
2018-11-04T15:10:30.526Z,100293.95
2018-11-04T15:12:58.307Z,100298.72
2018-11-04T15:15:26.160Z,100296.59
2018-11-04T15:17:53.971Z,100292.20
2018-11-04T15:20:21.779Z,100295.24
2018-11-04T15:22:51.180Z,100299.16
2018-11-04T15:25:20.542Z,100297.20
2018-11-04T15:27:49.075Z,100292.46
2018-11-04T15:30:17.378Z,100298.84
2018-11-04T15:32:45.561Z,100300.48
2018-11-04T15:35:14.619Z,100304.94
2018-11-04T15:37:43.105Z,100310.14
2018-11-04T15:40:12.548Z,100305.64
2018-11-04T15:42:41.039Z,100307.91
2018-11-04T15:45:10.673Z,100310.33
2018-11-04T15:47:39.039Z,100309.16
2018-11-04T15:50:09.128Z,100301.19
2018-11-04T15:52:36.953Z,100312.95
2018-11-04T15:55:05.211Z,100320.00
2018-11-04T15:57:32.971Z,100318.83
2018-11-04T16:00:00.714Z,100313.80
2018-11-04T16:02:28.526Z,100318.91
2018-11-04T16:04:56.250Z,100309.46
2018-11-04T16:07:24.104Z,100321.64
2018-11-04T16:09:51.845Z,100318.59
2018-11-04T16:12:19.626Z,100320.91
2018-11-04T16:14:47.461Z,100329.40
2018-11-04T16:17:15.135Z,100328.14
2018-11-04T16:19:42.879Z,100331.08
2018-11-04T16:22:10.685Z,100331.83
2018-11-04T16:24:38.475Z,100335.70
2018-11-04T16:27:06.259Z,100332.18
2018-11-04T16:29:34.088Z,100329.34
2018-11-04T16:32:02.127Z,100337.46
2018-11-04T16:34:29.928Z,100342.79
2018-11-04T16:36:57.762Z,100342.16
2018-11-04T16:39:25.499Z,100341.43
2018-11-04T16:41:53.272Z,100341.11
2018-11-04T16:44:21.359Z,100350.21
2018-11-04T16:46:48.997Z,100349.11
2018-11-04T16:49:16.723Z,100342.48
2018-11-04T16:51:45.367Z,100350.09
2018-11-04T16:54:13.172Z,100348.45
2018-11-04T16:56:41.003Z,100352.31
2018-11-04T16:59:08.768Z,100354.21
2018-11-04T17:01:36.563Z,100358.91
2018-11-04T17:04:04.432Z,100356.36
2018-11-04T17:06:32.478Z,100366.41
2018-11-04T17:09:00.286Z,100360.78
2018-11-04T17:11:28.285Z,100354.86
2018-11-04T17:13:56.093Z,100360.08
2018-11-04T17:16:23.995Z,100362.47
2018-11-04T17:18:51.724Z,100362.36
2018-11-04T17:21:19.983Z,100370.83
2018-11-04T17:23:48.585Z,100367.44
2018-11-04T17:26:16.999Z,100369.45
2018-11-04T17:28:44.842Z,100373.55
2018-11-04T17:31:12.587Z,100382.45
2018-11-04T17:33:41.567Z,100377.62
2018-11-04T17:36:09.880Z,100374.64
2018-11-04T17:38:38.159Z,100380.94
2018-11-04T17:41:06.503Z,100377.92
2018-11-04T17:43:34.727Z,100381.47
2018-11-04T17:46:03.037Z,100379.96
2018-11-04T17:48:31.191Z,100388.61
2018-11-04T17:50:59.744Z,100386.59
2018-11-04T17:53:27.606Z,100389.95
2018-11-04T17:55:55.708Z,100392.87
2018-11-04T17:58:24.084Z,100395.19
2018-11-04T18:00:53.451Z,100396.87
2018-11-04T18:03:21.570Z,100405.11
2018-11-04T18:05:49.854Z,100409.78
2018-11-04T18:08:17.742Z,100406.37
2018-11-04T18:10:46.056Z,100405.31
2018-11-04T18:13:14.728Z,100408.83
2018-11-04T18:15:42.595Z,100408.26
2018-11-04T18:18:10.804Z,100412.31
2018-11-04T18:20:38.743Z,100406.92
2018-11-04T18:23:06.678Z,100406.70
2018-11-04T18:25:34.576Z,100412.74
2018-11-04T18:28:02.584Z,100406.11
2018-11-04T18:30:30.615Z,100408.34
2018-11-04T18:32:58.595Z,100411.31
2018-11-04T18:35:26.411Z,100411.59
2018-11-04T18:37:54.183Z,100414.50
2018-11-04T18:40:21.987Z,100415.74
2018-11-04T18:42:49.783Z,100418.72
2018-11-04T18:45:17.946Z,100420.63
2018-11-04T18:47:45.839Z,100417.78
2018-11-04T18:50:14.624Z,100420.89
2018-11-04T18:52:42.574Z,100421.95
2018-11-04T18:55:11.696Z,100422.53
2018-11-04T18:57:40.488Z,100430.34
2018-11-04T19:00:10.903Z,100433.61
2018-11-04T19:02:38.649Z,100434.05
2018-11-04T19:05:06.875Z,100436.50
2018-11-04T19:07:34.749Z,100433.36
2018-11-04T19:10:02.499Z,100442.17
2018-11-04T19:12:30.240Z,100442.25
2018-11-04T19:14:57.967Z,100439.16
2018-11-04T19:17:26.065Z,100442.98
2018-11-04T19:19:53.863Z,100441.41
2018-11-04T19:22:21.663Z,100442.95
2018-11-04T19:24:49.507Z,100442.61
2018-11-04T19:27:17.300Z,100446.31
2018-11-04T19:29:45.788Z,100449.59
2018-11-04T19:32:13.936Z,100448.32
2018-11-04T19:34:42.416Z,100443.27
2018-11-04T19:37:10.959Z,100444.88
2018-11-04T19:39:39.116Z,100442.63
2018-11-04T19:42:07.450Z,100441.41
2018-11-04T19:44:35.700Z,100445.55
2018-11-04T19:47:04.551Z,100446.20
2018-11-04T19:49:32.937Z,100445.45
2018-11-04T19:52:01.142Z,100448.07
2018-11-04T19:54:29.624Z,100447.06
2018-11-04T19:56:58.042Z,100445.47
2018-11-04T19:59:27.140Z,100453.69
2018-11-04T20:01:55.365Z,100447.72
2018-11-04T20:04:23.623Z,100457.20
2018-11-04T20:06:51.393Z,100454.56
2018-11-04T20:09:19.126Z,100451.05
2018-11-04T20:11:47.055Z,100455.20
2018-11-04T20:14:18.391Z,100451.27
2018-11-04T20:16:47.415Z,100449.39
2018-11-04T20:19:20.613Z,100452.21
2018-11-04T20:21:48.452Z,100456.80
2018-11-04T20:24:21.615Z,100454.94
2018-11-04T20:26:49.683Z,100451.08
2018-11-04T20:29:17.596Z,100452.33
2018-11-04T20:31:51.647Z,100447.77
2018-11-04T20:34:19.901Z,100445.58
2018-11-04T20:36:48.359Z,100447.16
2018-11-04T20:39:22.063Z,100434.52
2018-11-04T20:41:50.251Z,100440.76
2018-11-04T20:44:18.716Z,100434.91
2018-11-04T20:46:46.984Z,100433.56
2018-11-04T20:49:20.145Z,100424.44
2018-11-04T20:51:48.184Z,100422.95
2018-11-04T20:54:15.875Z,100429.55
2018-11-04T20:56:49.004Z,100435.34
2018-11-04T20:59:16.753Z,100428.59
2018-11-04T21:01:44.523Z,100425.72
2018-11-04T21:04:12.412Z,100425.09
2018-11-04T21:06:40.759Z,100431.30
2018-11-04T21:09:09.978Z,100424.38
2018-11-04T21:11:38.372Z,100429.50
2018-11-04T21:14:06.636Z,100423.89
2018-11-04T21:16:35.139Z,100423.53
2018-11-04T21:19:03.416Z,100427.09
2018-11-04T21:21:32.116Z,100425.89
2018-11-04T21:24:00.355Z,100423.37
2018-11-04T21:26:28.612Z,100426.77
2018-11-04T21:28:56.710Z,100415.61
2018-11-04T21:31:25.150Z,100411.03
2018-11-04T21:33:53.483Z,100423.02
2018-11-04T21:36:24.388Z,100420.66
2018-11-04T21:38:52.617Z,100419.19
2018-11-04T21:41:21.083Z,100420.75
2018-11-04T21:43:49.397Z,100413.86
2018-11-04T21:46:17.687Z,100415.94
2018-11-04T21:48:46.140Z,100411.20
2018-11-04T21:51:14.923Z,100417.33
2018-11-04T21:53:43.235Z,100423.87
2018-11-04T21:56:11.656Z,100421.98
2018-11-04T21:58:39.631Z,100414.80
2018-11-04T22:01:07.498Z,100417.53
2018-11-04T22:03:35.735Z,100416.77
2018-11-04T22:06:03.870Z,100421.06
2018-11-04T22:08:32.120Z,100418.24
2018-11-04T22:11:00.246Z,100419.47
2018-11-04T22:13:28.488Z,100415.79
2018-11-04T22:15:56.879Z,100410.59
2018-11-04T22:18:25.278Z,100413.73
2018-11-04T22:20:53.576Z,100414.67
2018-11-04T22:23:21.823Z,100406.41
2018-11-04T22:25:50.064Z,100402.37
2018-11-04T22:28:18.338Z,100402.14
2018-11-04T22:30:46.509Z,100398.22
2018-11-04T22:33:14.922Z,100402.06
2018-11-04T22:35:43.207Z,100402.03
2018-11-04T22:38:11.671Z,100401.23
2018-11-04T22:40:39.956Z,100406.28
2018-11-04T22:43:08.414Z,100407.48
2018-11-04T22:45:36.523Z,100401.09
2018-11-04T22:48:04.799Z,100402.10
2018-11-04T22:50:33.018Z,100398.41
2018-11-04T22:53:00.975Z,100394.73
2018-11-04T22:55:29.392Z,100404.66
2018-11-04T22:58:03.238Z,100400.13
2018-11-04T23:00:36.867Z,100400.81
2018-11-04T23:03:05.313Z,100393.87
2018-11-04T23:05:33.582Z,100394.72
2018-11-04T23:08:02.037Z,100401.60
2018-11-04T23:10:30.210Z,100401.45
2018-11-04T23:12:58.487Z,100402.12
2018-11-04T23:15:26.906Z,100397.17
2018-11-04T23:17:55.408Z,100399.28
2018-11-04T23:20:23.659Z,100405.72
2018-11-04T23:22:52.110Z,100401.46
2018-11-04T23:25:20.372Z,100402.85
2018-11-04T23:27:48.846Z,100405.23
2018-11-04T23:30:17.816Z,100401.22
2018-11-04T23:32:46.268Z,100405.29
2018-11-04T23:35:14.744Z,100405.66
2018-11-04T23:37:43.782Z,100404.47
2018-11-04T23:40:12.110Z,100405.91
2018-11-04T23:42:40.339Z,100410.34
2018-11-04T23:45:09.744Z,100406.80
2018-11-04T23:47:38.074Z,100402.12
2018-11-04T23:50:08.847Z,100397.42
2018-11-04T23:52:36.978Z,100400.17
2018-11-04T23:55:05.511Z,100405.08
2018-11-04T23:57:33.939Z,100403.37
